createdAt,value
2018-07-16T00:01:11.488Z,2.90
2018-07-16T00:03:39.599Z,2.87
2018-07-16T00:06:07.817Z,2.53
2018-07-16T00:08:35.935Z,2.63
2018-07-16T00:11:04.059Z,3.07
2018-07-16T00:13:32.261Z,2.87
2018-07-16T00:16:00.454Z,2.87
2018-07-16T00:18:28.610Z,3.10
2018-07-16T00:20:56.707Z,2.90
2018-07-16T00:23:24.818Z,3.00
2018-07-16T00:25:52.927Z,2.77
2018-07-16T00:28:21.078Z,2.73
2018-07-16T00:30:49.190Z,2.30
2018-07-16T00:33:17.285Z,2.70
2018-07-16T00:35:45.376Z,2.50
2018-07-16T00:38:13.519Z,2.77
2018-07-16T00:40:41.701Z,2.80
2018-07-16T00:43:09.870Z,2.53
2018-07-16T00:45:38.051Z,2.97
2018-07-16T00:48:06.227Z,2.87
2018-07-16T00:50:34.402Z,2.27
2018-07-16T00:53:02.525Z,2.43
2018-07-16T00:55:34.556Z,2.90
2018-07-16T00:58:02.694Z,2.53
2018-07-16T01:00:30.918Z,2.67
2018-07-16T01:02:59.026Z,2.27
2018-07-16T01:05:27.189Z,2.53
2018-07-16T01:07:55.327Z,2.57
2018-07-16T01:10:23.424Z,2.90
2018-07-16T01:12:51.510Z,2.50
2018-07-16T01:15:19.631Z,2.80
2018-07-16T01:17:47.840Z,2.60
2018-07-16T01:20:16.017Z,2.57
2018-07-16T01:22:44.234Z,2.37
2018-07-16T01:25:12.399Z,2.70
2018-07-16T01:27:40.536Z,2.27
2018-07-16T01:30:08.656Z,2.27
2018-07-16T01:32:37.108Z,2.57
2018-07-16T01:35:05.232Z,2.40
2018-07-16T01:37:33.395Z,2.47
2018-07-16T01:40:01.555Z,2.80
2018-07-16T01:42:29.650Z,2.20
2018-07-16T01:44:57.762Z,2.50
2018-07-16T01:47:25.858Z,2.50
2018-07-16T01:49:54.034Z,2.33
2018-07-16T01:52:22.147Z,3.00
2018-07-16T01:54:50.322Z,3.10
2018-07-16T01:57:22.413Z,3.17
2018-07-16T01:59:50.520Z,2.73
2018-07-16T02:02:18.624Z,3.47
2018-07-16T02:04:46.820Z,3.00
2018-07-16T02:07:14.922Z,3.03
2018-07-16T02:09:43.381Z,3.10
2018-07-16T02:12:11.499Z,3.30
2018-07-16T02:14:39.611Z,3.40
2018-07-16T02:17:07.919Z,3.40
2018-07-16T02:19:36.022Z,3.07
2018-07-16T02:22:04.241Z,3.10
2018-07-16T02:24:32.452Z,3.03
2018-07-16T02:27:00.636Z,3.00
2018-07-16T02:29:28.776Z,2.83
2018-07-16T02:31:57.044Z,2.80
2018-07-16T02:34:25.381Z,2.43
2018-07-16T02:36:53.521Z,2.83
2018-07-16T02:39:21.624Z,2.60
2018-07-16T02:41:49.805Z,2.80
2018-07-16T02:44:17.996Z,2.57
2018-07-16T02:46:46.162Z,2.83
2018-07-16T02:49:14.343Z,2.50
2018-07-16T02:51:42.571Z,2.43
2018-07-16T02:54:10.801Z,2.97
2018-07-16T02:56:38.920Z,2.40
2018-07-16T02:59:07.273Z,2.90
2018-07-16T03:01:35.443Z,2.53
2018-07-16T03:04:03.539Z,2.70
2018-07-16T03:06:31.732Z,2.40
2018-07-16T03:08:59.874Z,2.87
2018-07-16T03:11:28.012Z,2.60
2018-07-16T03:13:56.146Z,2.50
2018-07-16T03:16:24.327Z,3.00
2018-07-16T03:18:52.463Z,2.33
2018-07-16T03:21:20.668Z,2.60
2018-07-16T03:23:48.842Z,2.60
2018-07-16T03:26:17.016Z,2.60
2018-07-16T03:28:45.152Z,2.27
2018-07-16T03:31:13.366Z,2.40
2018-07-16T03:33:41.539Z,2.70
2018-07-16T03:36:09.676Z,2.70
2018-07-16T03:38:37.782Z,2.53
2018-07-16T03:41:05.915Z,2.63
2018-07-16T03:43:34.058Z,2.50
2018-07-16T03:46:02.235Z,2.50
2018-07-16T03:48:30.342Z,2.50
2018-07-16T03:50:58.558Z,2.50
2018-07-16T03:53:26.662Z,2.53
2018-07-16T03:55:54.838Z,2.40
2018-07-16T03:58:23.146Z,2.70
2018-07-16T04:00:51.463Z,2.13
2018-07-16T04:03:19.600Z,2.37
2018-07-16T04:05:47.757Z,2.50
2018-07-16T04:08:15.855Z,2.37
2018-07-16T04:10:44.060Z,2.20
2018-07-16T04:13:12.196Z,2.60
2018-07-16T04:15:40.461Z,2.50
2018-07-16T04:18:11.751Z,2.60
2018-07-16T04:20:39.922Z,2.30
2018-07-16T04:23:08.072Z,2.63
2018-07-16T04:25:36.248Z,2.40
2018-07-16T04:28:04.452Z,2.37
2018-07-16T04:30:32.563Z,2.20
2018-07-16T04:33:00.862Z,2.70
2018-07-16T04:35:29.135Z,2.60
2018-07-16T04:37:57.624Z,2.37
2018-07-16T04:40:25.747Z,2.30
2018-07-16T04:42:54.007Z,2.20
2018-07-16T04:45:22.282Z,2.50
2018-07-16T04:47:50.457Z,2.53
2018-07-16T04:50:18.632Z,2.40
2018-07-16T04:52:46.811Z,2.60
2018-07-16T04:55:14.915Z,2.40
2018-07-16T04:57:43.164Z,2.20
2018-07-16T05:00:11.394Z,2.40
2018-07-16T05:02:39.745Z,2.20
2018-07-16T05:05:07.933Z,2.27
2018-07-16T05:07:36.387Z,2.40
2018-07-16T05:10:04.531Z,2.67
2018-07-16T05:12:32.663Z,4.00
2018-07-16T05:15:00.837Z,3.30
2018-07-16T05:17:29.094Z,3.10
2018-07-16T05:19:57.417Z,3.30
2018-07-16T05:22:25.858Z,3.40
2018-07-16T05:24:54.181Z,3.50
2018-07-16T05:27:22.443Z,3.13
2018-07-16T05:29:50.579Z,3.23
2018-07-16T05:32:18.874Z,2.10
2018-07-16T05:34:46.948Z,2.47
2018-07-16T05:37:15.047Z,2.50
2018-07-16T05:39:43.542Z,2.70
2018-07-16T05:42:11.738Z,2.80
2018-07-16T05:44:39.857Z,2.53
2018-07-16T05:47:07.958Z,2.60
2018-07-16T05:49:36.107Z,2.30
2018-07-16T05:52:04.210Z,2.13
2018-07-16T05:54:32.325Z,2.10
2018-07-16T05:57:00.440Z,2.20
2018-07-16T05:59:28.719Z,2.13
2018-07-16T06:01:56.854Z,2.17
2018-07-16T06:04:28.625Z,2.10
2018-07-16T06:06:56.733Z,3.00
2018-07-16T06:09:24.878Z,2.43
2018-07-16T06:11:53.009Z,4.10
2018-07-16T06:14:21.308Z,3.60
2018-07-16T06:16:49.498Z,3.47
2018-07-16T06:19:17.655Z,3.07
2018-07-16T06:21:45.771Z,2.70
2018-07-16T06:24:13.899Z,2.83
2018-07-16T06:26:42.159Z,3.47
2018-07-16T06:29:10.328Z,2.30
2018-07-16T06:31:38.446Z,2.53
2018-07-16T06:34:06.584Z,2.27
2018-07-16T06:36:34.787Z,2.30
2018-07-16T06:39:03.572Z,2.27
2018-07-16T06:41:31.975Z,2.67
2018-07-16T06:43:59.892Z,2.13
2018-07-16T06:46:28.026Z,2.50
2018-07-16T06:48:56.196Z,2.60
2018-07-16T06:51:24.333Z,2.47
2018-07-16T06:53:52.527Z,2.23
2018-07-16T06:56:20.710Z,2.00
2018-07-16T06:58:48.818Z,2.60
2018-07-16T07:01:17.270Z,2.40
2018-07-16T07:03:45.406Z,2.00
2018-07-16T07:06:13.730Z,2.20
2018-07-16T07:08:41.827Z,2.00
2018-07-16T07:11:09.991Z,2.13
2018-07-16T07:13:38.101Z,2.00
2018-07-16T07:16:06.243Z,2.10
2018-07-16T07:18:34.355Z,1.80
2018-07-16T07:21:02.491Z,1.90
2018-07-16T07:23:30.662Z,1.77
2018-07-16T07:25:58.907Z,1.80
2018-07-16T07:28:27.050Z,1.53
2018-07-16T07:30:55.150Z,1.70
2018-07-16T07:33:23.295Z,1.93
2018-07-16T07:35:51.478Z,1.87
2018-07-16T07:38:19.619Z,2.17
2018-07-16T07:40:47.774Z,1.80
2018-07-16T07:43:15.914Z,1.90
2018-07-16T07:45:44.075Z,1.83
2018-07-16T07:48:12.206Z,1.73
2018-07-16T07:50:40.321Z,1.60
2018-07-16T07:53:08.493Z,1.90
2018-07-16T07:55:36.753Z,1.53
2018-07-16T07:58:05.017Z,1.80
2018-07-16T08:00:33.137Z,1.63
2018-07-16T08:03:01.351Z,1.40
2018-07-16T08:05:29.464Z,1.80
2018-07-16T08:07:57.980Z,1.67
2018-07-16T08:10:26.165Z,1.93
2018-07-16T08:12:54.310Z,1.57
2018-07-16T08:15:22.501Z,1.30
2018-07-16T08:17:50.633Z,1.53
2018-07-16T08:20:18.842Z,1.50
2018-07-16T08:22:46.961Z,1.20
2018-07-16T08:25:15.096Z,1.43
2018-07-16T08:27:43.305Z,1.60
2018-07-16T08:30:11.486Z,1.80
2018-07-16T08:32:39.622Z,1.60
2018-07-16T08:35:07.834Z,1.40
2018-07-16T08:37:35.978Z,1.50
2018-07-16T08:40:04.378Z,1.53
2018-07-16T08:42:32.553Z,1.30
2018-07-16T08:45:00.693Z,1.60
2018-07-16T08:47:28.834Z,1.40
2018-07-16T08:49:56.946Z,1.33
2018-07-16T08:52:25.088Z,1.40
2018-07-16T08:54:53.303Z,1.40
2018-07-16T08:57:21.414Z,1.53
2018-07-16T08:59:49.632Z,1.50
2018-07-16T09:02:17.807Z,1.27
2018-07-16T09:04:45.946Z,1.50
2018-07-16T09:07:14.173Z,1.40
2018-07-16T09:09:42.439Z,1.40
2018-07-16T09:12:10.623Z,1.40
2018-07-16T09:14:38.737Z,1.50
2018-07-16T09:17:06.873Z,1.70
2018-07-16T09:19:35.036Z,1.47
2018-07-16T09:22:03.234Z,1.40
2018-07-16T09:24:31.352Z,1.57
2018-07-16T09:26:59.514Z,1.30
2018-07-16T09:29:27.623Z,1.30
2018-07-16T09:31:55.827Z,1.37
2018-07-16T09:34:24.021Z,1.40
2018-07-16T09:36:52.200Z,1.40
2018-07-16T09:39:20.341Z,1.67
2018-07-16T09:41:48.484Z,1.53
2018-07-16T09:44:16.659Z,1.43
2018-07-16T09:46:44.801Z,1.40
2018-07-16T09:49:12.954Z,1.60
2018-07-16T09:51:41.114Z,1.60
2018-07-16T09:54:09.263Z,1.80
2018-07-16T09:56:37.366Z,1.10
2018-07-16T09:59:05.497Z,1.73
2018-07-16T10:01:39.007Z,1.70
2018-07-16T10:04:07.183Z,1.67
2018-07-16T10:06:35.328Z,1.47
2018-07-16T10:09:04.763Z,1.80
2018-07-16T10:11:33.135Z,1.80
2018-07-16T10:14:01.425Z,1.60
2018-07-16T10:16:29.644Z,1.83
2018-07-16T10:18:57.817Z,1.90
2018-07-16T10:21:26.001Z,2.17
2018-07-16T10:23:54.174Z,1.80
2018-07-16T10:26:22.300Z,2.20
2018-07-16T10:28:50.524Z,1.80
2018-07-16T10:31:18.758Z,1.90
2018-07-16T10:33:47.275Z,2.10
2018-07-16T10:36:15.374Z,2.20
2018-07-16T10:38:43.763Z,2.10
2018-07-16T10:41:11.868Z,1.87
2018-07-16T10:43:39.980Z,2.00
2018-07-16T10:46:08.120Z,1.80
2018-07-16T10:48:36.331Z,2.27
2018-07-16T10:51:04.454Z,1.80
2018-07-16T10:53:32.632Z,2.07
2018-07-16T10:56:00.743Z,1.97
2018-07-16T10:58:28.871Z,2.00
2018-07-16T11:00:57.130Z,2.20
2018-07-16T11:03:25.269Z,2.30
2018-07-16T11:05:53.371Z,2.10
2018-07-16T11:08:21.531Z,1.97
2018-07-16T11:10:49.676Z,2.37
2018-07-16T11:13:21.173Z,2.33
2018-07-16T11:15:49.354Z,2.10
2018-07-16T11:18:17.520Z,2.00
2018-07-16T11:20:45.807Z,2.30
2018-07-16T11:23:14.126Z,2.40
2018-07-16T11:25:46.642Z,2.40
2018-07-16T11:28:14.833Z,2.30
2018-07-16T11:30:42.984Z,2.37
2018-07-16T11:33:11.176Z,2.30
2018-07-16T11:35:39.414Z,2.50
2018-07-16T11:38:07.520Z,2.17
2018-07-16T11:40:35.959Z,2.10
2018-07-16T11:43:04.156Z,2.17
2018-07-16T11:45:32.319Z,2.50
2018-07-16T11:48:00.493Z,2.33
2018-07-16T11:50:28.691Z,2.80
2018-07-16T11:52:56.842Z,2.20
2018-07-16T11:55:24.963Z,2.50
2018-07-16T11:57:53.090Z,2.33
2018-07-16T12:00:21.313Z,2.53
2018-07-16T12:02:49.451Z,2.20
2018-07-16T12:05:17.651Z,2.53
2018-07-16T12:07:45.799Z,2.50
2018-07-16T12:10:13.941Z,2.50
2018-07-16T12:12:42.228Z,2.70
2018-07-16T12:15:11.451Z,2.20
2018-07-16T12:17:39.659Z,2.67
2018-07-16T12:20:07.812Z,2.93
2018-07-16T12:22:35.930Z,2.60
2018-07-16T12:25:04.156Z,2.80
2018-07-16T12:27:32.302Z,3.00
2018-07-16T12:30:00.459Z,2.90
2018-07-16T12:32:28.964Z,2.47
2018-07-16T12:34:57.081Z,2.70
2018-07-16T12:37:25.241Z,3.10
2018-07-16T12:39:53.355Z,2.90
2018-07-16T12:42:21.534Z,2.80
2018-07-16T12:44:49.743Z,2.70
2018-07-16T12:47:17.918Z,2.80
2018-07-16T12:49:46.059Z,2.90
2018-07-16T12:52:14.343Z,3.03
2018-07-16T12:54:42.479Z,3.00
2018-07-16T12:57:10.740Z,3.13
2018-07-16T12:59:38.825Z,2.77
2018-07-16T13:02:06.924Z,2.90
2018-07-16T13:04:35.057Z,2.90
2018-07-16T13:07:03.292Z,2.70
2018-07-16T13:09:31.406Z,2.67
2018-07-16T13:11:59.547Z,2.97
2018-07-16T13:14:27.672Z,2.77
2018-07-16T13:16:55.964Z,2.70
2018-07-16T13:19:24.160Z,2.53
2018-07-16T13:21:52.318Z,3.10
2018-07-16T13:24:20.500Z,2.77
2018-07-16T13:26:48.643Z,2.90
2018-07-16T13:29:16.765Z,3.10
2018-07-16T13:31:45.017Z,2.50
2018-07-16T13:34:13.187Z,3.00
2018-07-16T13:36:41.374Z,2.63
2018-07-16T13:39:10.572Z,3.00
2018-07-16T13:41:38.725Z,2.70
2018-07-16T13:44:07.069Z,3.03
2018-07-16T13:46:35.448Z,3.03
2018-07-16T13:49:03.587Z,3.13
2018-07-16T13:51:32.092Z,2.87
2018-07-16T13:54:00.549Z,3.27
2018-07-16T13:56:28.742Z,3.10
2018-07-16T13:58:57.290Z,3.33
2018-07-16T14:01:25.588Z,3.27
2018-07-16T14:03:53.795Z,2.83
2018-07-16T14:06:21.915Z,2.80
2018-07-16T14:08:50.926Z,2.93
2018-07-16T14:11:19.226Z,3.20
2018-07-16T14:13:47.378Z,3.20
2018-07-16T14:16:15.543Z,3.27
2018-07-16T14:18:47.364Z,3.07
2018-07-16T14:21:15.526Z,3.20
2018-07-16T14:23:43.643Z,3.17
2018-07-16T14:26:12.000Z,2.90
2018-07-16T14:28:40.514Z,3.20
2018-07-16T14:31:08.765Z,3.10
2018-07-16T14:33:36.924Z,3.33
2018-07-16T14:36:05.058Z,3.60
2018-07-16T14:38:33.173Z,3.27
2018-07-16T14:41:01.324Z,3.30
2018-07-16T14:43:29.548Z,3.50
2018-07-16T14:45:57.664Z,2.90
2018-07-16T14:48:25.826Z,3.20
2018-07-16T14:50:54.003Z,3.80
2018-07-16T14:53:22.187Z,3.33
2018-07-16T14:55:50.335Z,3.60
2018-07-16T14:58:19.338Z,3.40
2018-07-16T15:00:47.453Z,3.43
2018-07-16T15:03:15.837Z,3.70
2018-07-16T15:05:44.787Z,3.67
2018-07-16T15:08:12.899Z,4.20
2018-07-16T15:10:41.418Z,3.53
2018-07-16T15:13:10.661Z,3.50
2018-07-16T15:15:39.061Z,3.70
2018-07-16T15:18:07.488Z,3.77
2018-07-16T15:20:35.833Z,3.93
2018-07-16T15:23:03.884Z,3.80
2018-07-16T15:25:32.037Z,3.50
2018-07-16T15:28:00.507Z,3.30
2018-07-16T15:30:28.655Z,3.37
2018-07-16T15:32:56.807Z,3.13
2018-07-16T15:35:24.938Z,3.20
2018-07-16T15:37:53.220Z,3.30
2018-07-16T15:40:21.365Z,3.50
2018-07-16T15:42:49.889Z,3.37
2018-07-16T15:45:18.168Z,3.20
2018-07-16T15:47:46.335Z,3.57
2018-07-16T15:50:14.464Z,3.10
2018-07-16T15:52:42.599Z,3.40
2018-07-16T15:55:10.767Z,3.50
2018-07-16T15:57:38.957Z,3.30
2018-07-16T16:00:07.224Z,3.30
2018-07-16T16:02:35.530Z,3.53
2018-07-16T16:05:03.684Z,3.30
2018-07-16T16:07:32.949Z,3.23
2018-07-16T16:10:02.255Z,3.30
2018-07-16T16:12:30.391Z,14.30
2018-07-16T16:14:58.671Z,9.27
2018-07-16T16:17:27.060Z,13.13
2018-07-16T16:19:55.407Z,10.57
2018-07-16T16:22:24.680Z,13.20
2018-07-16T16:24:52.895Z,12.83
2018-07-16T16:27:21.045Z,11.80
2018-07-16T16:29:49.180Z,10.03
2018-07-16T16:32:17.551Z,10.70
2018-07-16T16:34:45.924Z,10.50
2018-07-16T16:37:14.109Z,10.20
2018-07-16T16:39:42.486Z,9.83
2018-07-16T16:42:11.188Z,9.03
2018-07-16T16:44:39.308Z,8.57
2018-07-16T16:47:08.136Z,9.07
2018-07-16T16:49:36.311Z,8.97
2018-07-16T16:52:04.470Z,8.57
2018-07-16T16:54:33.030Z,8.20
2018-07-16T16:57:01.225Z,7.70
2018-07-16T16:59:29.364Z,7.90
2018-07-16T17:01:57.511Z,7.70
2018-07-16T17:04:25.718Z,7.00
2018-07-16T17:06:53.825Z,7.03
2018-07-16T17:09:25.518Z,6.50
2018-07-16T17:11:53.748Z,6.17
2018-07-16T17:14:21.870Z,6.67
2018-07-16T17:16:50.041Z,6.77
2018-07-16T17:19:18.145Z,6.17
2018-07-16T17:21:46.327Z,6.17
2018-07-16T17:24:18.329Z,5.57
2018-07-16T17:26:46.449Z,6.50
2018-07-16T17:29:14.917Z,5.50
2018-07-16T17:31:42.989Z,4.80
2018-07-16T17:34:11.090Z,5.40
2018-07-16T17:36:39.203Z,5.40
2018-07-16T17:39:07.951Z,5.67
2018-07-16T17:41:36.105Z,5.60
2018-07-16T17:44:04.201Z,5.40
2018-07-16T17:46:32.615Z,4.73
2018-07-16T17:49:00.656Z,4.67
2018-07-16T17:51:28.702Z,4.73
2018-07-16T17:53:56.779Z,5.60
2018-07-16T17:56:24.862Z,5.23
2018-07-16T17:58:52.953Z,4.77
2018-07-16T18:01:21.154Z,5.13
2018-07-16T18:03:49.423Z,4.67
2018-07-16T18:06:18.187Z,5.17
2018-07-16T18:08:46.246Z,4.70
2018-07-16T18:11:14.373Z,4.97
2018-07-16T18:13:42.547Z,4.63
2018-07-16T18:16:10.671Z,4.63
2018-07-16T18:18:38.864Z,4.10
2018-07-16T18:21:11.026Z,4.27
2018-07-16T18:23:39.065Z,4.23
2018-07-16T18:26:10.572Z,4.20
2018-07-16T18:28:38.679Z,4.37
2018-07-16T18:31:06.785Z,4.87
2018-07-16T18:33:35.067Z,4.30
2018-07-16T18:36:03.598Z,4.10
2018-07-16T18:38:31.739Z,3.60
2018-07-16T18:40:59.890Z,3.73
2018-07-16T18:43:28.076Z,3.83
2018-07-16T18:45:56.254Z,4.10
2018-07-16T18:48:24.394Z,3.63
2018-07-16T18:50:52.580Z,3.93
2018-07-16T18:53:20.977Z,3.73
2018-07-16T18:55:49.128Z,3.93
2018-07-16T18:58:17.346Z,3.40
2018-07-16T19:00:45.686Z,4.10
2018-07-16T19:03:13.854Z,3.90
2018-07-16T19:05:42.007Z,3.60
2018-07-16T19:08:10.314Z,3.77
2018-07-16T19:10:38.454Z,3.60
2018-07-16T19:13:06.583Z,3.77
2018-07-16T19:15:34.686Z,3.60
2018-07-16T19:18:02.801Z,3.77
2018-07-16T19:20:30.919Z,3.07
2018-07-16T19:22:59.008Z,3.40
2018-07-16T19:25:27.146Z,3.20
2018-07-16T19:27:58.949Z,3.07
2018-07-16T19:30:27.076Z,3.47
2018-07-16T19:32:55.246Z,3.10
2018-07-16T19:35:24.713Z,2.90
2018-07-16T19:37:53.265Z,3.53
2018-07-16T19:40:21.370Z,3.37
2018-07-16T19:42:49.493Z,3.57
2018-07-16T19:45:17.630Z,3.77
2018-07-16T19:47:45.809Z,3.00
2018-07-16T19:50:13.923Z,3.37
2018-07-16T19:52:42.008Z,3.00
2018-07-16T19:55:10.227Z,3.07
2018-07-16T19:57:38.272Z,3.70
2018-07-16T20:00:06.747Z,3.40
2018-07-16T20:02:34.953Z,3.07
2018-07-16T20:05:03.069Z,3.37
2018-07-16T20:07:31.165Z,3.30
2018-07-16T20:09:59.278Z,3.20
2018-07-16T20:12:29.464Z,3.93
2018-07-16T20:14:57.910Z,3.47
2018-07-16T20:17:25.998Z,4.27
2018-07-16T20:19:54.068Z,4.10
2018-07-16T20:22:22.171Z,4.27
2018-07-16T20:24:50.238Z,4.17
2018-07-16T20:27:18.352Z,3.80
2018-07-16T20:29:52.066Z,3.67
2018-07-16T20:32:20.194Z,3.67
2018-07-16T20:34:48.283Z,3.93
2018-07-16T20:37:16.422Z,4.00
2018-07-16T20:39:45.188Z,3.33
2018-07-16T20:42:13.250Z,3.50
2018-07-16T20:44:41.378Z,3.47
2018-07-16T20:47:09.440Z,3.80
2018-07-16T20:49:37.562Z,3.50
2018-07-16T20:52:05.879Z,3.47
2018-07-16T20:54:34.005Z,3.40
2018-07-16T20:57:02.150Z,3.57
2018-07-16T20:59:30.258Z,3.43
2018-07-16T21:01:58.456Z,3.50
2018-07-16T21:04:26.609Z,3.83
2018-07-16T21:06:54.707Z,3.30
2018-07-16T21:09:22.989Z,3.40
2018-07-16T21:11:51.407Z,3.23
2018-07-16T21:14:19.614Z,3.40
2018-07-16T21:16:47.735Z,3.40
2018-07-16T21:19:15.835Z,3.43
2018-07-16T21:21:43.931Z,3.30
2018-07-16T21:24:12.066Z,3.70
2018-07-16T21:26:40.343Z,3.20
2018-07-16T21:29:08.458Z,3.77
2018-07-16T21:31:36.856Z,3.33
2018-07-16T21:34:04.988Z,3.37
2018-07-16T21:36:33.158Z,3.47
2018-07-16T21:39:01.305Z,3.23
2018-07-16T21:41:29.420Z,3.47
2018-07-16T21:43:57.673Z,3.50
2018-07-16T21:46:25.857Z,3.63
2018-07-16T21:48:54.080Z,3.40
2018-07-16T21:51:22.249Z,3.27
2018-07-16T21:53:50.382Z,3.50
2018-07-16T21:56:18.551Z,3.30
2018-07-16T21:58:47.103Z,3.87
2018-07-16T22:01:15.244Z,3.20
2018-07-16T22:03:43.367Z,3.27
2018-07-16T22:06:11.491Z,3.30
2018-07-16T22:08:39.639Z,3.30
2018-07-16T22:11:07.748Z,3.27
2018-07-16T22:13:35.879Z,3.40
2018-07-16T22:16:04.031Z,3.60
2018-07-16T22:18:32.131Z,3.70
2018-07-16T22:21:00.271Z,3.30
2018-07-16T22:23:28.421Z,3.20
2018-07-16T22:25:56.627Z,3.33
2018-07-16T22:28:24.731Z,3.03
2018-07-16T22:30:52.865Z,3.60
2018-07-16T22:33:21.219Z,3.30
2018-07-16T22:35:49.358Z,3.67
2018-07-16T22:38:17.558Z,3.60
2018-07-16T22:40:45.659Z,3.37
2018-07-16T22:43:13.771Z,3.40
2018-07-16T22:45:42.012Z,3.43
2018-07-16T22:48:10.119Z,3.53
2018-07-16T22:50:38.218Z,3.60
2018-07-16T22:53:06.331Z,3.57
2018-07-16T22:55:34.458Z,3.37
2018-07-16T22:58:02.613Z,4.17
2018-07-16T23:00:30.750Z,3.07
2018-07-16T23:03:00.502Z,3.37
2018-07-16T23:05:29.357Z,3.70
2018-07-16T23:07:58.684Z,3.97
2018-07-16T23:10:27.595Z,3.70
2018-07-16T23:12:55.779Z,3.90
2018-07-16T23:15:25.492Z,3.97
2018-07-16T23:17:54.694Z,3.93
2018-07-16T23:20:22.838Z,4.10
2018-07-16T23:22:53.156Z,4.40
2018-07-16T23:25:21.875Z,3.80
2018-07-16T23:27:50.086Z,3.87
2018-07-16T23:30:18.239Z,3.97
2018-07-16T23:32:46.815Z,3.63
2018-07-16T23:35:18.741Z,3.70
2018-07-16T23:37:47.292Z,3.93
2018-07-16T23:40:15.427Z,4.00
2018-07-16T23:42:43.738Z,4.40
2018-07-16T23:45:11.882Z,3.63
2018-07-16T23:47:40.045Z,3.87
2018-07-16T23:50:08.177Z,3.97
2018-07-16T23:52:36.337Z,3.33
2018-07-16T23:55:04.435Z,3.57
2018-07-16T23:57:32.673Z,3.30
